WetterOnline ( https://www.wetteronline.de )

Wetter aktuell Zinnowitz

Aktuelles Wetter: Greifswalder Oie (12m)

6-stündlich | Neueste Meldungen
Ortszeit Temperatur Wetter
Di, 20.08. 2:00 18.0° C wolkig
Mo, 19.08. 20:00 20.3° C wolkenlos
Mo, 19.08. 14:00 20.4° C wolkenlos
Mo, 19.08. 8:00 16.9° C wolkig
Mo, 19.08. 2:00 17.7° C wolkig
So, 18.08. 20:00 19.7° C Regen
So, 18.08. 14:00 20.8° C bewölkt
So, 18.08. 8:00 18.9° C wolkig
Ortszeit Temperatur Wetter
Di, 20.08. 4:30 17.1° C fast wolkenlos
Di, 20.08. 4:20 17.1° C fast wolkenlos
Di, 20.08. 4:10 17.2° C wolkenlos
Di, 20.08. 4:00 17.2° C wolkenlos
Di, 20.08. 3:50 17.2° C wolkenlos
Di, 20.08. 3:40 17.3° C fast wolkenlos
Di, 20.08. 3:30 17.2° C leicht bewölkt
Di, 20.08. 3:00 16.9° C wolkenlos
Di, 20.08. 2:30 17.7° C leicht bewölkt
Di, 20.08. 2:00 18.0° C wolkig
Di, 20.08. 1:30 18.0° C wolkenlos
Ortszeit Relative Feuchte Sichtweite
Di, 20.08. 2:00 75% 40 km
Mo, 19.08. 20:00 70% 55 km
Mo, 19.08. 14:00 66% 45 km
Mo, 19.08. 8:00 89% 19 km
Mo, 19.08. 2:00 82% 40 km
So, 18.08. 20:00 91% 60 km
So, 18.08. 14:00 78% 35 km
So, 18.08. 8:00 84% 45 km
Ortszeit Relative Feuchte Sichtweite
Di, 20.08. 4:30 76% 40 km
Di, 20.08. 4:20 76% -
Di, 20.08. 4:10 76% -
Di, 20.08. 4:00 75% 40 km
Di, 20.08. 3:50 75% -
Di, 20.08. 3:40 76% -
Di, 20.08. 3:30 75% 40 km
Di, 20.08. 3:00 73% 40 km
Di, 20.08. 2:30 70% 45 km
Di, 20.08. 2:00 75% 40 km
Di, 20.08. 1:30 75% 40 km
Ortszeit Niederschlagsmenge Niederschlagsart
Di, 20.08. 2:00 0.0 l/m2 in 6 Std. -
Mo, 19.08. 20:00 0.1 l/m2 in 12 Std. -
Mo, 19.08. 14:00 0.1 l/m2 in 6 Std. Regen
Mo, 19.08. 8:00 1 l/m2 in 12 Std. Sprühregen
Mo, 19.08. 2:00 1 l/m2 in 6 Std. Regen
So, 18.08. 20:00 0.8 l/m2 in 12 Std. Regen
So, 18.08. 14:00 0.1 l/m2 in 6 Std. Regen
So, 18.08. 8:00 0.0 l/m2 in 12 Std. -
Ortszeit Niederschlagsmenge Niederschlagsart
Di, 20.08. 4:30 0.0 l/m2 in 1 Std. -
Di, 20.08. 4:20 keine Meldung -
Di, 20.08. 4:10 keine Meldung -
Di, 20.08. 4:00 0.0 l/m2 in 1 Std. -
Di, 20.08. 3:50 keine Meldung -
Di, 20.08. 3:40 keine Meldung -
Di, 20.08. 3:30 0.0 l/m2 in 1 Std. -
Di, 20.08. 3:00 0.0 l/m2 in 1 Std. -
Di, 20.08. 2:30 0.0 l/m2 in 1 Std. -
Di, 20.08. 2:00 0.0 l/m2 in 1 Std. -
Di, 20.08. 1:30 0.0 l/m2 in 1 Std. -
Ortszeit Stärke Spitze Richtung
km/h Bft. km/h Grad Sektor
Di, 20.08. 2:00 19 3 24 220° SW
Mo, 19.08. 20:00 20 4 33 250° W
Mo, 19.08. 14:00 26 4 39 270° W
Mo, 19.08. 8:00 25 4 40 230° SW
Mo, 19.08. 2:00 30 5 50 270° W
So, 18.08. 20:00 30 5 41 220° SW
So, 18.08. 14:00 9 2 28 150° SO
So, 18.08. 8:00 25 4 29 230° SW
Ortszeit Stärke Spitze Richtung
km/h Bft. km/h Grad Sektor
Di, 20.08. 4:30 19 3 24 250° W
Di, 20.08. 4:20 19 3 - 250° W
Di, 20.08. 4:10 20 4 - 250° W
Di, 20.08. 4:00 20 4 24 250° W
Di, 20.08. 3:50 20 4 - 250° W
Di, 20.08. 3:40 22 4 - 250° W
Di, 20.08. 3:30 18 3 25 250° W
Di, 20.08. 3:00 22 4 25 240° SW
Di, 20.08. 2:30 20 4 26 220° SW
Di, 20.08. 2:00 19 3 22 220° SW
Di, 20.08. 1:30 17 3 20 230° SW
Ortszeit Untergrenze Bedeckung Gattung
total tief tief mittel hoch
Di, 20.08. 2:00 7800 m 7/8 0/8 - - -
Mo, 19.08. 20:00 - 0/8 0/8 - - -
Mo, 19.08. 14:00 - 0/8 0/8 - - -
Mo, 19.08. 8:00 7200 m 8/8 0/8 - - -
Mo, 19.08. 2:00 750 m 7/8 4/8 - - -
So, 18.08. 20:00 480 m 8/8 8/8 - - -
So, 18.08. 14:00 750 m 7/8 7/8 - - -
So, 18.08. 8:00 1200 m 8/8 3/8 - - -
Ortszeit Bedeckungsgrad in Achtel und Wolkenuntergrenze
Di, 20.08. 4:30 2(8100m)
Di, 20.08. 4:20 2(8100m)
Di, 20.08. 4:10 keine Wolken
Di, 20.08. 4:00 keine Wolken
Di, 20.08. 3:50 keine Wolken
Di, 20.08. 3:40 1(8700m)
Di, 20.08. 3:30 3(8700m)
Di, 20.08. 3:00 keine Wolken
Di, 20.08. 2:30 3(7800m) 3(9000m)
Di, 20.08. 2:00 7(7800m) 8(9000m)
Di, 20.08. 1:30 2(8100m)
Ortszeit Luftdruck NN (hPa) Tendenz (hPa in 3 Std.)
Di, 20.08. 2:00 1018 + 0,8
Mo, 19.08. 20:00 1016 + 1,2
Mo, 19.08. 14:00 1014 + 1,2
Mo, 19.08. 8:00 1012 + 1,7
Mo, 19.08. 2:00 1009 + 1,9
So, 18.08. 20:00 1004 0,0
So, 18.08. 14:00 1005 - 0,9
So, 18.08. 8:00 1007 - 0,2
Ortszeit Luftdruck NN (hPa) Tendenz (hPa in 3 Std.)
Di, 20.08. 4:30 1019 + 0,8
Di, 20.08. 4:20 1019 keine Meldung
Di, 20.08. 4:10 1019 keine Meldung
Di, 20.08. 4:00 1019 + 0,9
Di, 20.08. 3:50 1019 keine Meldung
Di, 20.08. 3:40 1019 keine Meldung
Di, 20.08. 3:30 1019 + 0,9
Di, 20.08. 3:00 1019 + 1,0
Di, 20.08. 2:30 1018 + 0,9
Di, 20.08. 2:00 1018 + 0,8
Di, 20.08. 1:30 1018 + 0,8
Ortszeit Schneehöhe (cm)
Di, 20.08. 2:00 -
Mo, 19.08. 20:00 -
Mo, 19.08. 14:00 -
Mo, 19.08. 8:00 -
Mo, 19.08. 2:00 -
So, 18.08. 20:00 -
So, 18.08. 14:00 -
So, 18.08. 8:00 -
Ortszeit Schneehöhe (cm)
Di, 20.08. 4:30 -
Di, 20.08. 4:20 -
Di, 20.08. 4:10 -
Di, 20.08. 4:00 -
Di, 20.08. 3:50 -
Di, 20.08. 3:40 -
Di, 20.08. 3:30 -
Di, 20.08. 3:00 -
Di, 20.08. 2:30 -
Di, 20.08. 2:00 -
Di, 20.08. 1:30 -
Link zu dieser Seite / Seite empfehlen

Das Wetter in ...